createdAt,value
2018-06-15T00:00:01.362Z,11.40
2018-06-15T00:02:31.133Z,11.40
2018-06-15T00:04:59.286Z,11.40
2018-06-15T00:07:27.440Z,11.40
2018-06-15T00:09:56.125Z,11.40
2018-06-15T00:12:24.311Z,11.40
2018-06-15T00:14:52.453Z,11.40
2018-06-15T00:17:20.599Z,11.40
2018-06-15T00:19:48.737Z,11.40
2018-06-15T00:22:16.889Z,11.40
2018-06-15T00:24:45.036Z,11.30
2018-06-15T00:27:13.244Z,11.30
2018-06-15T00:29:41.392Z,11.30
2018-06-15T00:32:09.536Z,11.30
2018-06-15T00:34:37.747Z,11.30
2018-06-15T00:37:05.953Z,11.30
2018-06-15T00:39:34.088Z,11.20
2018-06-15T00:42:02.265Z,11.30
2018-06-15T00:44:30.409Z,11.20
2018-06-15T00:46:58.547Z,11.20
2018-06-15T00:49:26.676Z,11.20
2018-06-15T00:51:54.834Z,11.20
2018-06-15T00:54:22.960Z,11.10
2018-06-15T00:57:02.469Z,11.10
2018-06-15T00:59:30.625Z,11.10
2018-06-15T01:01:58.824Z,11.10
2018-06-15T01:04:26.980Z,11.00
2018-06-15T01:06:55.157Z,11.00
2018-06-15T01:09:23.316Z,11.00
2018-06-15T01:11:51.436Z,11.00
2018-06-15T01:14:19.597Z,11.00
2018-06-15T01:16:47.728Z,10.90
2018-06-15T01:19:15.909Z,10.90
2018-06-15T01:21:44.080Z,10.90
2018-06-15T01:24:12.241Z,10.80
2018-06-15T01:26:40.373Z,10.80
2018-06-15T01:29:08.513Z,10.80
2018-06-15T01:31:36.672Z,10.80
2018-06-15T01:34:04.819Z,10.80
2018-06-15T01:36:32.951Z,10.80
2018-06-15T01:39:01.104Z,10.80
2018-06-15T01:41:29.245Z,10.80
2018-06-15T01:43:57.406Z,10.70
2018-06-15T01:46:25.582Z,10.70
2018-06-15T01:48:53.736Z,10.70
2018-06-15T01:51:21.869Z,10.70
2018-06-15T01:53:50.068Z,10.60
2018-06-15T01:56:18.204Z,10.70
2018-06-15T01:58:46.349Z,10.60
2018-06-15T02:01:14.522Z,10.60
2018-06-15T02:03:42.698Z,10.50
2018-06-15T02:06:10.873Z,10.50
2018-06-15T02:08:39.029Z,10.50
2018-06-15T02:11:07.529Z,10.50
2018-06-15T02:13:35.697Z,10.40
2018-06-15T02:16:03.870Z,10.40
2018-06-15T02:18:32.045Z,10.40
2018-06-15T02:21:00.221Z,10.40
2018-06-15T02:23:28.409Z,10.40
2018-06-15T02:25:56.580Z,10.40
2018-06-15T02:28:24.777Z,10.40
2018-06-15T02:30:52.949Z,10.40
2018-06-15T02:33:21.125Z,10.40
2018-06-15T02:35:49.288Z,10.40
2018-06-15T02:38:17.469Z,10.40
2018-06-15T02:40:45.705Z,10.40
2018-06-15T02:43:13.893Z,10.40
2018-06-15T02:45:42.061Z,10.40
2018-06-15T02:48:10.233Z,10.40
2018-06-15T02:50:38.425Z,10.50
2018-06-15T02:53:06.645Z,10.50
2018-06-15T02:55:34.853Z,10.50
2018-06-15T02:58:03.516Z,10.60
2018-06-15T03:00:31.685Z,10.60
2018-06-15T03:02:59.868Z,10.60
2018-06-15T03:05:28.047Z,10.60
2018-06-15T03:07:56.226Z,10.60
2018-06-15T03:10:24.412Z,10.60
2018-06-15T03:12:52.600Z,10.60
2018-06-15T03:15:20.784Z,10.60
2018-06-15T03:17:48.957Z,10.60
2018-06-15T03:20:17.156Z,10.60
2018-06-15T03:22:45.373Z,10.70
2018-06-15T03:25:13.640Z,10.70
2018-06-15T03:27:41.791Z,10.80
2018-06-15T03:30:09.993Z,10.80
2018-06-15T03:32:38.575Z,10.90
2018-06-15T03:35:06.802Z,10.90
2018-06-15T03:37:35.072Z,11.00
2018-06-15T03:40:03.360Z,11.00
2018-06-15T03:42:31.553Z,11.00
2018-06-15T03:44:59.744Z,11.00
2018-06-15T03:47:27.936Z,11.00
2018-06-15T03:49:56.132Z,11.00
2018-06-15T03:52:24.465Z,11.00
2018-06-15T03:54:52.685Z,10.90
2018-06-15T03:57:20.876Z,10.90
2018-06-15T03:59:49.068Z,10.90
2018-06-15T04:02:17.261Z,10.90
2018-06-15T04:04:45.459Z,11.00
2018-06-15T04:07:13.674Z,11.00
2018-06-15T04:09:41.876Z,11.00
2018-06-15T04:12:10.063Z,11.00
2018-06-15T04:14:38.251Z,11.00
2018-06-15T04:17:06.673Z,11.00
2018-06-15T04:19:34.910Z,11.00
2018-06-15T04:22:03.117Z,11.00
2018-06-15T04:24:31.323Z,11.00
2018-06-15T04:26:59.516Z,11.10
2018-06-15T04:29:27.723Z,11.10
2018-06-15T04:32:09.488Z,11.10
2018-06-15T04:34:37.897Z,11.20
2018-06-15T04:37:06.074Z,11.20
2018-06-15T04:39:34.396Z,11.20
2018-06-15T04:42:02.569Z,11.30
2018-06-15T04:44:30.758Z,11.30
2018-06-15T04:49:26.888Z,11.40
2018-06-15T04:51:55.121Z,11.40
2018-06-15T04:54:23.325Z,11.40
2018-06-15T04:56:51.601Z,11.50
2018-06-15T04:59:20.358Z,11.50
2018-06-15T05:01:48.541Z,11.60
2018-06-15T05:04:16.765Z,11.60
2018-06-15T05:06:44.969Z,11.70
2018-06-15T05:09:13.237Z,11.80
2018-06-15T05:11:41.572Z,11.80
2018-06-15T05:14:09.781Z,11.90
2018-06-15T05:16:37.969Z,11.90
2018-06-15T05:19:06.176Z,12.00
2018-06-15T05:21:34.383Z,12.00
2018-06-15T05:24:02.543Z,12.10
2018-06-15T05:26:30.745Z,12.10
2018-06-15T05:28:58.939Z,12.10
2018-06-15T05:31:27.133Z,12.20
2018-06-15T05:33:55.382Z,12.30
2018-06-15T05:36:23.627Z,12.40
2018-06-15T05:38:51.798Z,12.40
2018-06-15T05:41:19.976Z,12.50
2018-06-15T05:43:48.157Z,12.60
2018-06-15T05:46:16.348Z,12.60
2018-06-15T05:48:44.517Z,12.70
2018-06-15T05:51:12.803Z,12.80
2018-06-15T05:53:40.995Z,12.80
2018-06-15T05:56:09.189Z,12.90
2018-06-15T05:58:37.368Z,12.90
2018-06-15T06:01:05.562Z,13.00
2018-06-15T06:03:33.749Z,13.00
2018-06-15T06:06:01.940Z,13.10
2018-06-15T06:08:30.120Z,13.10
2018-06-15T06:10:58.316Z,13.10
2018-06-15T06:13:26.549Z,13.20
2018-06-15T06:15:54.687Z,13.20
2018-06-15T06:18:22.852Z,13.30
2018-06-15T06:20:51.024Z,13.40
2018-06-15T06:23:19.203Z,13.40
2018-06-15T06:25:47.432Z,13.40
2018-06-15T06:28:15.583Z,13.50
2018-06-15T06:30:43.766Z,13.50
2018-06-15T06:33:12.112Z,13.50
2018-06-15T06:35:40.301Z,13.50
2018-06-15T06:38:08.497Z,13.60
2018-06-15T06:40:36.682Z,13.60
2018-06-15T06:43:04.864Z,13.60
2018-06-15T06:45:33.050Z,13.70
2018-06-15T06:48:01.248Z,13.70
2018-06-15T06:50:29.496Z,13.70
2018-06-15T06:52:57.673Z,13.80
2018-06-15T06:55:25.847Z,13.80
2018-06-15T06:57:54.041Z,13.80
2018-06-15T07:00:22.327Z,13.90
2018-06-15T07:02:50.534Z,14.00
2018-06-15T07:05:18.744Z,14.10
2018-06-15T07:07:46.927Z,14.10
2018-06-15T07:10:15.126Z,14.20
2018-06-15T07:12:43.332Z,14.30
2018-06-15T07:15:11.516Z,14.40
2018-06-15T07:17:39.739Z,14.50
2018-06-15T07:20:07.933Z,14.60
2018-06-15T07:22:36.137Z,14.60
2018-06-15T07:25:04.370Z,14.70
2018-06-15T07:27:32.589Z,14.90
2018-06-15T07:30:01.013Z,14.90
2018-06-15T07:32:29.208Z,15.00
2018-06-15T07:34:57.389Z,15.10
2018-06-15T07:37:25.572Z,15.10
2018-06-15T07:39:53.754Z,15.20
2018-06-15T07:42:21.985Z,15.30
2018-06-15T07:44:50.189Z,15.30
2018-06-15T07:47:18.461Z,15.40
2018-06-15T07:49:46.644Z,15.40
2018-06-15T07:52:14.838Z,15.40
2018-06-15T07:54:43.065Z,15.50
2018-06-15T07:57:11.237Z,15.50
2018-06-15T07:59:39.447Z,15.60
2018-06-15T08:02:07.604Z,15.60
2018-06-15T08:04:35.822Z,15.60
2018-06-15T08:07:04.447Z,15.70
2018-06-15T08:09:32.704Z,15.70
2018-06-15T08:12:00.911Z,15.70
2018-06-15T08:14:29.107Z,15.80
2018-06-15T08:16:57.281Z,15.90
2018-06-15T08:19:25.473Z,16.00
2018-06-15T08:21:53.656Z,16.10
2018-06-15T08:24:21.847Z,16.20
2018-06-15T08:26:50.043Z,16.30
2018-06-15T08:29:18.248Z,16.40
2018-06-15T08:31:46.459Z,16.40
2018-06-15T08:34:14.644Z,16.40
2018-06-15T08:36:42.825Z,16.50
2018-06-15T08:39:12.064Z,16.50
2018-06-15T08:41:40.346Z,16.50
2018-06-15T08:44:08.567Z,16.50
2018-06-15T08:46:37.195Z,16.50
2018-06-15T08:49:05.372Z,16.50
2018-06-15T08:51:33.537Z,16.50
2018-06-15T08:54:01.739Z,16.60
2018-06-15T08:56:29.912Z,16.60
2018-06-15T08:58:58.092Z,16.70
2018-06-15T09:01:26.296Z,16.80
2018-06-15T09:03:54.512Z,16.90
2018-06-15T09:06:22.718Z,16.90
2018-06-15T09:08:51.173Z,16.80
2018-06-15T09:11:19.365Z,16.80
2018-06-15T09:13:47.572Z,16.80
2018-06-15T09:16:15.773Z,16.90
2018-06-15T09:18:44.034Z,17.00
2018-06-15T09:21:12.229Z,17.00
2018-06-15T09:23:40.489Z,17.00
2018-06-15T09:26:08.669Z,17.00
2018-06-15T09:31:04.816Z,17.10
2018-06-15T09:33:32.999Z,17.10
2018-06-15T09:36:01.190Z,17.10
2018-06-15T09:38:29.373Z,17.10
2018-06-15T09:40:57.688Z,17.20
2018-06-15T09:43:25.909Z,17.30
2018-06-15T09:45:54.098Z,17.40
2018-06-15T09:48:22.280Z,17.50
2018-06-15T09:50:50.476Z,17.50
2018-06-15T09:53:18.662Z,17.40
2018-06-15T09:55:46.847Z,17.40
2018-06-15T09:58:15.023Z,17.40
2018-06-15T10:00:48.748Z,17.30
2018-06-15T10:03:16.934Z,17.30
2018-06-15T10:05:45.154Z,17.40
2018-06-15T10:08:13.348Z,17.40
2018-06-15T10:10:41.548Z,17.50
2018-06-15T10:13:09.770Z,17.70
2018-06-15T10:15:37.946Z,17.90
2018-06-15T10:18:06.154Z,18.10
2018-06-15T10:20:34.343Z,18.20
2018-06-15T10:23:02.529Z,18.40
2018-06-15T10:25:30.709Z,18.50
2018-06-15T10:27:58.921Z,18.60
2018-06-15T10:30:27.138Z,18.80
2018-06-15T10:32:55.334Z,18.90
2018-06-15T10:35:23.939Z,19.00
2018-06-15T10:37:52.142Z,19.00
2018-06-15T10:40:20.341Z,18.90
2018-06-15T10:42:48.537Z,18.80
2018-06-15T10:45:16.724Z,18.70
2018-06-15T10:47:44.914Z,18.70
2018-06-15T10:50:13.204Z,18.60
2018-06-15T10:52:41.391Z,18.60
2018-06-15T10:55:09.578Z,18.80
2018-06-15T10:57:37.784Z,19.00
2018-06-15T11:00:06.001Z,19.30
2018-06-15T11:02:34.257Z,19.50
2018-06-15T11:05:02.433Z,19.70
2018-06-15T11:07:30.650Z,19.90
2018-06-15T11:09:58.845Z,20.00
2018-06-15T11:12:27.066Z,20.10
2018-06-15T11:14:55.279Z,20.10
2018-06-15T11:17:23.480Z,20.00
2018-06-15T11:19:51.719Z,20.00
2018-06-15T11:22:19.893Z,20.10
2018-06-15T11:24:48.063Z,20.20
2018-06-15T11:27:16.249Z,20.30
2018-06-15T11:29:44.448Z,20.40
2018-06-15T11:32:13.582Z,20.50
2018-06-15T11:34:41.794Z,20.60
2018-06-15T11:37:09.981Z,20.70
2018-06-15T11:39:38.175Z,20.70
2018-06-15T11:42:06.371Z,20.90
2018-06-15T11:44:34.550Z,21.00
2018-06-15T11:47:02.789Z,21.10
2018-06-15T11:49:31.005Z,21.30
2018-06-15T11:52:00.903Z,21.40
2018-06-15T11:54:29.142Z,21.60
2018-06-15T11:56:57.355Z,21.60
2018-06-15T11:59:25.637Z,21.50
2018-06-15T12:01:53.881Z,21.40
2018-06-15T12:04:22.040Z,21.20
2018-06-15T12:06:50.228Z,21.10
2018-06-15T12:09:18.424Z,21.10
2018-06-15T12:11:46.625Z,21.20
2018-06-15T12:14:14.813Z,21.20
2018-06-15T12:16:43.038Z,21.30
2018-06-15T12:19:11.253Z,21.50
2018-06-15T12:21:39.527Z,21.60
2018-06-15T12:24:07.694Z,21.80
2018-06-15T12:26:35.900Z,22.00
2018-06-15T12:29:04.092Z,22.10
2018-06-15T12:31:32.608Z,22.10
2018-06-15T12:34:00.829Z,21.90
2018-06-15T12:36:29.012Z,21.80
2018-06-15T12:38:57.215Z,21.70
2018-06-15T12:41:25.496Z,21.80
2018-06-15T12:43:53.710Z,21.80
2018-06-15T12:46:21.920Z,21.80
2018-06-15T12:48:50.085Z,21.90
2018-06-15T12:51:18.318Z,21.90
2018-06-15T12:53:46.483Z,21.80
2018-06-15T12:56:14.681Z,21.80
2018-06-15T12:58:42.870Z,21.70
2018-06-15T13:01:11.103Z,21.80
2018-06-15T13:03:39.310Z,21.80
2018-06-15T13:06:07.662Z,21.90
2018-06-15T13:08:35.857Z,21.90
2018-06-15T13:11:04.086Z,21.80
2018-06-15T13:13:32.267Z,21.90
2018-06-15T13:16:00.456Z,22.00
2018-06-15T13:18:28.657Z,22.10
2018-06-15T13:20:56.862Z,22.30
2018-06-15T13:23:25.059Z,22.40
2018-06-15T13:25:53.232Z,22.50
2018-06-15T13:28:21.432Z,22.60
2018-06-15T13:30:49.615Z,22.60
2018-06-15T13:33:17.819Z,22.70
2018-06-15T13:35:45.980Z,22.70
2018-06-15T13:38:14.206Z,22.80
2018-06-15T13:40:42.429Z,22.90
2018-06-15T13:43:10.751Z,22.90
2018-06-15T13:45:38.952Z,22.90
2018-06-15T13:48:07.141Z,22.90
2018-06-15T13:50:35.336Z,22.80
2018-06-15T13:53:03.541Z,22.80
2018-06-15T13:55:31.786Z,22.70
2018-06-15T13:57:59.989Z,22.60
2018-06-15T14:00:28.254Z,22.50
2018-06-15T14:02:56.376Z,22.60
2018-06-15T14:05:24.550Z,22.70
2018-06-15T14:07:52.763Z,22.80
2018-06-15T14:10:20.959Z,22.80
2018-06-15T14:12:49.186Z,22.70
2018-06-15T14:15:17.326Z,22.50
2018-06-15T14:17:45.643Z,22.40
2018-06-15T14:20:13.833Z,22.30
2018-06-15T14:22:42.045Z,22.40
2018-06-15T14:25:10.277Z,22.60
2018-06-15T14:27:39.002Z,22.80
2018-06-15T14:30:07.220Z,23.00
2018-06-15T14:32:35.408Z,23.10
2018-06-15T14:35:03.615Z,23.30
2018-06-15T14:37:31.817Z,23.40
2018-06-15T14:39:59.994Z,23.60
2018-06-15T14:42:28.187Z,23.80
2018-06-15T14:44:56.374Z,24.00
2018-06-15T14:47:24.579Z,24.00
2018-06-15T14:49:52.763Z,23.90
2018-06-15T14:52:20.950Z,23.80
2018-06-15T14:54:49.149Z,24.00
2018-06-15T14:57:18.643Z,24.10
2018-06-15T14:59:52.476Z,24.30
2018-06-15T15:02:20.757Z,24.40
2018-06-15T15:04:49.022Z,24.50
2018-06-15T15:07:17.189Z,24.60
2018-06-15T15:09:45.385Z,24.80
2018-06-15T15:12:13.576Z,25.00
2018-06-15T15:14:41.786Z,25.40
2018-06-15T15:17:09.993Z,25.70
2018-06-15T15:19:38.203Z,25.60
2018-06-15T15:22:06.451Z,25.30
2018-06-15T15:24:34.645Z,25.00
2018-06-15T15:27:02.848Z,24.80
2018-06-15T15:31:59.004Z,27.20
2018-06-15T15:34:27.444Z,29.60
2018-06-15T15:36:55.660Z,31.00
2018-06-15T15:39:23.852Z,30.60
2018-06-15T15:41:52.018Z,30.40
2018-06-15T15:44:20.654Z,31.40
2018-06-15T15:49:16.783Z,32.10
2018-06-15T15:51:44.976Z,32.30
2018-06-15T15:54:13.157Z,31.90
2018-06-15T15:56:41.348Z,31.30
2018-06-15T15:59:09.561Z,30.50
2018-06-15T16:01:37.748Z,29.60
2018-06-15T16:04:11.696Z,28.70
2018-06-15T16:06:39.892Z,28.00
2018-06-15T16:09:09.568Z,27.40
2018-06-15T16:11:37.747Z,27.00
2018-06-15T16:14:06.353Z,26.60
2018-06-15T16:16:34.723Z,26.40
2018-06-15T16:19:02.903Z,26.10
2018-06-15T16:21:31.281Z,25.80
2018-06-15T16:23:59.508Z,25.60
2018-06-15T16:26:27.684Z,25.40
2018-06-15T16:28:55.878Z,25.20
2018-06-15T16:31:24.520Z,25.00
2018-06-15T16:33:52.724Z,24.90
2018-06-15T16:36:20.910Z,24.80
2018-06-15T16:38:49.183Z,24.70
2018-06-15T16:41:17.620Z,24.60
2018-06-15T16:43:45.808Z,24.50
2018-06-15T16:46:14.006Z,24.30
2018-06-15T16:48:42.244Z,24.10
2018-06-15T16:51:10.465Z,24.00
2018-06-15T16:53:38.781Z,23.80
2018-06-15T16:56:07.008Z,23.70
2018-06-15T16:58:35.179Z,23.60
2018-06-15T17:01:03.447Z,23.50
2018-06-15T17:03:31.817Z,23.40
2018-06-15T17:06:00.164Z,23.30
2018-06-15T17:08:28.341Z,23.10
2018-06-15T17:10:56.556Z,23.00
2018-06-15T17:13:24.730Z,22.90
2018-06-15T17:15:53.185Z,22.80
2018-06-15T17:18:21.421Z,22.70
2018-06-15T17:20:49.610Z,22.50
2018-06-15T17:23:19.675Z,22.50
2018-06-15T17:25:47.862Z,22.40
2018-06-15T17:28:16.060Z,22.20
2018-06-15T17:30:44.271Z,22.10
2018-06-15T17:33:12.460Z,22.00
2018-06-15T17:35:40.645Z,21.90
2018-06-15T17:38:08.846Z,21.80
2018-06-15T17:40:37.026Z,21.70
2018-06-15T17:43:05.205Z,21.60
2018-06-15T17:45:33.411Z,21.60
2018-06-15T17:48:01.630Z,21.40
2018-06-15T17:50:29.995Z,21.30
2018-06-15T17:52:58.191Z,21.20
2018-06-15T17:55:26.375Z,21.10
2018-06-15T17:57:54.563Z,20.90
2018-06-15T18:00:22.792Z,20.80
2018-06-15T18:02:50.988Z,20.60
2018-06-15T18:05:19.194Z,20.50
2018-06-15T18:07:47.396Z,20.30
2018-06-15T18:10:15.641Z,20.20
2018-06-15T18:12:43.835Z,20.10
2018-06-15T18:15:12.194Z,19.90
2018-06-15T18:17:40.437Z,19.80
2018-06-15T18:20:08.675Z,19.60
2018-06-15T18:22:37.484Z,19.50
2018-06-15T18:25:05.965Z,19.40
2018-06-15T18:27:34.248Z,19.20
2018-06-15T18:30:02.601Z,19.10
2018-06-15T18:32:30.912Z,19.00
2018-06-15T18:34:59.237Z,18.90
2018-06-15T18:37:28.169Z,18.70
2018-06-15T18:39:56.432Z,18.70
2018-06-15T18:42:24.633Z,18.60
2018-06-15T18:44:52.853Z,18.50
2018-06-15T18:47:21.305Z,18.40
2018-06-15T18:49:49.485Z,18.20
2018-06-15T18:52:17.666Z,18.20
2018-06-15T18:54:45.909Z,18.10
2018-06-15T18:57:14.045Z,18.00
2018-06-15T18:59:42.653Z,17.90
2018-06-15T19:02:11.709Z,17.80
2018-06-15T19:04:39.943Z,17.70
2018-06-15T19:07:08.601Z,17.60
2018-06-15T19:09:36.911Z,17.50
2018-06-15T19:12:05.144Z,17.40
2018-06-15T19:14:33.324Z,17.30
2018-06-15T19:17:01.520Z,17.10
2018-06-15T19:19:29.775Z,17.10
2018-06-15T19:21:58.063Z,17.00
2018-06-15T19:24:26.280Z,16.90
2018-06-15T19:26:54.606Z,16.90
2018-06-15T19:29:23.066Z,16.80
2018-06-15T19:31:51.269Z,16.70
2018-06-15T19:34:19.585Z,16.60
2018-06-15T19:36:47.797Z,16.60
2018-06-15T19:39:15.978Z,16.50
2018-06-15T19:41:44.193Z,16.40
2018-06-15T19:44:12.379Z,16.30
2018-06-15T19:46:40.565Z,16.20
2018-06-15T19:49:08.789Z,16.20
2018-06-15T19:51:37.118Z,16.10
2018-06-15T19:54:05.310Z,16.00
2018-06-15T19:56:33.549Z,16.00
2018-06-15T19:59:01.997Z,15.90
2018-06-15T20:01:30.158Z,15.90
2018-06-15T20:03:58.494Z,15.90
2018-06-15T20:06:26.676Z,15.80
2018-06-15T20:08:54.919Z,15.80
2018-06-15T20:11:23.152Z,15.70
2018-06-15T20:13:51.366Z,15.70
2018-06-15T20:16:19.648Z,15.70
2018-06-15T20:18:47.857Z,15.60
2018-06-15T20:21:16.045Z,15.70
2018-06-15T20:23:44.243Z,15.60
2018-06-15T20:26:12.431Z,15.60
2018-06-15T20:28:40.624Z,15.50
2018-06-15T20:31:08.876Z,15.40
2018-06-15T20:33:37.051Z,15.40
2018-06-15T20:36:05.283Z,15.30
2018-06-15T20:38:33.487Z,15.30
2018-06-15T20:42:29.682Z,15.10
2018-06-15T20:44:57.901Z,15.10
2018-06-15T20:47:26.102Z,15.00
2018-06-15T20:49:54.307Z,14.90
2018-06-15T20:52:22.534Z,14.80
2018-06-15T20:54:50.737Z,14.80
2018-06-15T20:57:18.920Z,14.70
2018-06-15T21:02:16.101Z,14.60
2018-06-15T21:04:44.288Z,14.60
2018-06-15T21:07:12.493Z,14.50
2018-06-15T21:09:40.679Z,14.40
2018-06-15T21:12:08.877Z,14.40
2018-06-15T21:14:37.135Z,14.30
2018-06-15T21:17:05.322Z,14.20
2018-06-15T21:22:01.449Z,14.10
2018-06-15T21:24:29.661Z,14.00
2018-06-15T21:26:57.849Z,13.90
2018-06-15T21:29:26.063Z,13.90
2018-06-15T21:31:54.276Z,13.90
2018-06-15T21:34:22.484Z,13.90
2018-06-15T21:36:50.713Z,13.80
2018-06-15T21:39:18.913Z,13.80
2018-06-15T21:41:47.099Z,13.70
2018-06-15T21:44:15.289Z,13.70
2018-06-15T21:46:43.678Z,13.70
2018-06-15T21:49:11.873Z,13.70
2018-06-15T21:51:40.080Z,13.60
2018-06-15T21:54:08.270Z,13.60
2018-06-15T21:56:36.464Z,13.60
2018-06-15T21:59:04.687Z,13.50
2018-06-15T22:01:33.235Z,13.50
2018-06-15T22:04:01.444Z,13.40
2018-06-15T22:06:29.646Z,13.40
2018-06-15T22:08:57.852Z,13.30
2018-06-15T22:11:26.017Z,13.30
2018-06-15T22:13:54.208Z,13.30
2018-06-15T22:16:22.464Z,13.20
2018-06-15T22:18:50.740Z,13.20
2018-06-15T22:21:18.949Z,13.10
2018-06-15T22:23:47.205Z,13.10
2018-06-15T22:26:15.411Z,13.00
2018-06-15T22:28:43.592Z,13.00
2018-06-15T22:31:11.809Z,13.00
2018-06-15T22:33:39.984Z,12.90
2018-06-15T22:36:08.179Z,12.90
2018-06-15T22:38:36.374Z,12.90
2018-06-15T22:41:04.573Z,12.80
2018-06-15T22:43:32.767Z,12.80
2018-06-15T22:46:00.973Z,12.70
2018-06-15T22:50:57.104Z,12.70
2018-06-15T22:53:25.286Z,12.70
2018-06-15T22:55:53.475Z,12.70
2018-06-15T22:58:21.656Z,12.70
2018-06-15T23:00:49.836Z,12.60
2018-06-15T23:03:18.053Z,12.60
2018-06-15T23:05:46.270Z,12.60
2018-06-15T23:08:14.454Z,12.60
2018-06-15T23:10:42.645Z,12.60
2018-06-15T23:13:10.824Z,12.50
2018-06-15T23:15:39.061Z,12.50
2018-06-15T23:18:07.249Z,12.50
2018-06-15T23:20:35.471Z,12.50
2018-06-15T23:23:03.640Z,12.50
2018-06-15T23:27:59.746Z,12.50
2018-06-15T23:30:27.906Z,12.50
2018-06-15T23:32:56.081Z,12.50
2018-06-15T23:35:24.247Z,12.50
2018-06-15T23:37:52.399Z,12.50
2018-06-15T23:40:20.557Z,12.40
2018-06-15T23:42:48.699Z,12.40
2018-06-15T23:45:16.842Z,12.40
2018-06-15T23:47:45.001Z,12.40
2018-06-15T23:50:13.142Z,12.30
2018-06-15T23:52:41.330Z,12.30
2018-06-15T23:55:09.466Z,12.30
2018-06-15T23:57:44.364Z,12.30
